Time;durP1;ratioP1;P1;durP2;ratioP2;P2;SDS_P1;SDS_P2;PMS_P1;PMS_P2;Temp;Humidity;BMP_temperature;BMP_pressure;BME280_temperature;BME280_humidity;BME280_pressure;Samples;Min_cycle;Max_cycle;Signal;HPM_P1;HPM_P2
2023/07/29 00:03:13;;;;;;;4.82;1.30;;;;;;;15.47;74.73;99614.59;10532482;28;20498;-74
2023/07/29 00:08:15;;;;;;;1.48;1.10;;;;;;;15.24;75.99;99609.38;10532613;28;20053;-74
2023/07/29 00:13:17;;;;;;;2.13;1.23;;;;;;;15.32;75.95;99604.97;10532380;28;20048;-74
2023/07/29 00:18:19;;;;;;;1.85;1.35;;;;;;;15.25;76.09;99607.44;10532407;28;20044;-75
2023/07/29 00:23:22;;;;;;;1.25;1.05;;;;;;;15.28;76.20;99610.34;10532259;28;20047;-74
2023/07/29 00:28:24;;;;;;;1.95;1.00;;;;;;;15.52;75.46;99612.41;10513900;28;20040;-74
2023/07/29 00:33:26;;;;;;;1.67;1.23;;;;;;;15.56;75.40;99623.59;10513743;28;20436;-74
2023/07/29 00:38:29;;;;;;;1.55;1.02;;;;;;;15.44;75.84;99616.06;10512839;28;20053;-75
2023/07/29 00:43:31;;;;;;;1.10;1.00;;;;;;;15.57;75.26;99619.69;10513945;28;20051;-74
2023/07/29 00:48:33;;;;;;;1.88;1.20;;;;;;;15.47;76.00;99628.41;10512420;28;20056;-74
2023/07/29 00:53:35;;;;;;;2.13;1.30;;;;;;;15.59;75.65;99634.00;10512781;28;20037;-74
2023/07/29 00:58:38;;;;;;;4.18;1.60;;;;;;;15.26;77.03;99640.25;10530454;28;20391;-75
2023/07/29 01:03:40;;;;;;;1.95;1.00;;;;;;;15.17;77.05;99628.47;10529541;28;20056;-74
2023/07/29 01:09:00;;;;;;;3.38;1.23;;;;;;;15.02;77.65;99629.88;10512223;28;20529;-74
2023/07/29 01:14:44;;;;;;;1.95;1.13;;;;;;;15.27;76.60;99635.53;10511865;28;20053;-72
2023/07/29 01:20:05;;;;;;;3.60;1.30;;;;;;;15.61;75.08;99643.59;10529253;28;20044;-75
2023/07/29 01:25:07;;;;;;;3.08;1.20;;;;;;;15.64;75.08;99655.94;10532608;28;20074;-74
2023/07/29 01:30:10;;;;;;;1.92;0.98;;;;;;;15.31;76.20;99661.38;10495403;28;20451;-75
2023/07/29 01:35:40;;;;;;;1.85;1.13;;;;;;;15.52;75.42;99653.09;10511536;28;20414;-74
2023/07/29 01:40:42;;;;;;;1.77;1.05;;;;;;;15.39;76.07;99650.25;10511753;28;20037;-74
2023/07/29 01:45:44;;;;;;;3.90;0.90;;;;;;;15.39;75.85;99660.50;10528644;28;20045;-74
2023/07/29 01:50:46;;;;;;;1.20;1.10;;;;;;;15.59;75.13;99661.66;10493235;28;20431;-74
2023/07/29 01:55:49;;;;;;;1.98;1.30;;;;;;;15.54;75.70;99661.84;10528117;28;20052;-74
2023/07/29 02:00:58;;;;;;;1.10;1.00;;;;;;;15.36;76.42;99658.41;10513611;28;20502;-74
2023/07/29 02:06:00;;;;;;;2.13;1.25;;;;;;;15.71;75.36;99664.50;10513277;28;20051;-74
2023/07/29 02:11:02;;;;;;;2.10;1.40;;;;;;;15.98;74.47;99652.84;10510192;28;20067;-74
2023/07/29 02:16:05;;;;;;;5.30;1.33;;;;;;;16.52;72.97;99647.19;10510201;28;20036;-74
2023/07/29 02:21:07;;;;;;;3.08;1.40;;;;;;;17.06;71.02;99660.03;10509893;28;20044;-74
2023/07/29 02:26:09;;;;;;;2.03;1.17;;;;;;;16.89;71.44;99658.31;10509135;28;20517;-74
2023/07/29 02:31:16;;;;;;;3.80;1.42;;;;;;;17.12;70.75;99664.16;10509385;28;20047;-74
2023/07/29 02:36:21;;;;;;;2.83;2.00;;;;;;;17.15;69.61;99672.59;10488066;28;20037;-74
2023/07/29 02:41:23;;;;;;;1.65;1.17;;;;;;;18.05;67.10;99673.28;10507670;28;20070;-76
2023/07/29 02:46:25;;;;;;;2.38;1.10;;;;;;;18.04;65.87;99683.53;10482828;28;20359;-72
2023/07/29 02:51:27;;;;;;;2.78;1.33;;;;;;;18.62;64.24;99681.13;10506888;28;20053;-73
2023/07/29 02:56:30;;;;;;;2.90;1.10;;;;;;;18.22;65.65;99686.84;10505582;28;20362;-72
2023/07/29 03:01:32;;;;;;;3.67;1.30;;;;;;;18.45;64.36;99683.47;10508272;28;20051;-78
2023/07/29 03:06:35;;;;;;;1.73;1.27;;;;;;;18.00;65.36;99682.66;10509840;28;20395;-75
2023/07/29 03:11:37;;;;;;;2.58;1.35;;;;;;;17.37;67.02;99689.91;10507847;28;20657;-73
2023/07/29 03:16:40;;;;;;;2.20;1.30;;;;;;;17.70;66.38;99687.75;10525776;28;20033;-75
2023/07/29 03:21:42;;;;;;;2.05;1.50;;;;;;;17.39;67.38;99701.44;10504683;28;20056;-74
2023/07/29 03:26:44;;;;;;;3.05;1.40;;;;;;;18.27;64.81;99707.97;10510750;28;20052;-75
2023/07/29 03:31:47;;;;;;;5.40;1.58;;;;;;;18.85;63.28;99706.34;10523340;28;20414;-76
2023/07/29 03:36:50;;;;;;;2.63;1.48;;;;;;;19.48;60.48;99695.13;10509929;28;20048;-72
2023/07/29 03:41:55;;;;;;;2.35;1.60;;;;;;;19.47;60.76;99693.50;10525416;28;20068;-72
2023/07/29 03:46:57;;;;;;;2.08;1.30;;;;;;;20.29;58.40;99691.59;10506311;28;20048;-73
2023/07/29 03:51:59;;;;;;;2.47;1.45;;;;;;;19.78;59.39;99694.56;10511714;28;20037;-74
2023/07/29 03:57:02;;;;;;;3.13;1.30;;;;;;;19.65;60.21;99701.47;10531628;28;20048;-75
2023/07/29 04:02:05;;;;;;;3.38;1.40;;;;;;;20.96;56.12;99701.19;10514230;28;20044;-72
2023/07/29 04:07:07;;;;;;;2.50;1.00;;;;;;;21.34;55.37;99702.19;10514157;28;20055;-71
2023/07/29 04:12:10;;;;;;;2.85;1.30;;;;;;;21.57;54.76;99704.94;10498981;28;20036;-71
2023/07/29 04:17:12;;;;;;;1.85;1.20;;;;;;;21.46;54.57;99723.50;10514313;28;20036;-71
2023/07/29 04:22:15;;;;;;;2.50;1.33;;;;;;;21.98;52.62;99709.44;10513736;28;20414;-71
2023/07/29 04:27:18;;;;;;;2.40;1.33;;;;;;;21.82;52.96;99716.41;10525521;28;20503;-71
2023/07/29 04:32:20;;;;;;;2.47;1.30;;;;;;;21.57;54.31;99699.34;10511636;28;20039;-71
2023/07/29 04:37:22;;;;;;;1.20;1.02;;;;;;;21.46;55.11;99715.13;10500009;28;20529;-71
2023/07/29 04:42:24;;;;;;;1.73;1.02;;;;;;;22.33;52.72;99707.47;10496266;28;20036;-71
2023/07/29 04:47:26;;;;;;;3.15;1.40;;;;;;;22.22;53.15;99715.75;10529823;28;20044;-71
2023/07/29 04:52:29;;;;;;;3.03;1.45;;;;;;;22.84;51.72;99716.00;10530915;28;20051;-71
2023/07/29 04:57:32;;;;;;;3.03;1.40;;;;;;;22.84;50.60;99716.00;10512130;28;20037;-71
2023/07/29 05:02:34;;;;;;;2.53;1.10;;;;;;;23.20;49.59;99716.28;10527944;28;20493;-71
2023/07/29 05:07:37;;;;;;;1.30;1.20;;;;;;;22.09;52.42;99715.22;10550288;28;20484;-71
2023/07/29 05:12:39;;;;;;;3.47;1.30;;;;;;;23.60;49.11;99713.38;10494974;28;20036;-71
2023/07/29 05:17:42;;;;;;;2.65;1.45;;;;;;;23.57;50.13;99710.56;10510333;28;20056;-71
2023/07/29 05:22:44;;;;;;;2.63;1.27;;;;;;;24.44;47.00;99707.72;10529177;28;20521;-71
2023/07/29 05:27:46;;;;;;;1.73;1.10;;;;;;;24.33;47.82;99719.72;10528473;28;20507;-71
2023/07/29 05:32:48;;;;;;;2.85;1.42;;;;;;;24.94;46.92;99706.56;10524873;28;20040;-71
2023/07/29 05:37:51;;;;;;;3.47;1.25;;;;;;;24.95;46.27;99702.56;10527651;28;20041;-71
2023/07/29 05:42:54;;;;;;;3.25;1.23;;;;;;;25.02;45.67;99701.81;10489768;28;20045;-72
2023/07/29 05:47:57;;;;;;;3.05;1.25;;;;;;;25.79;44.11;99702.06;10495031;28;20526;-71
2023/07/29 05:52:59;;;;;;;1.98;1.15;;;;;;;25.78;44.63;99700.47;10504060;28;20052;-72
2023/07/29 05:58:01;;;;;;;2.35;1.48;;;;;;;26.41;42.60;99690.16;10510676;28;20037;-72
2023/07/29 06:03:04;;;;;;;2.88;1.48;;;;;;;26.80;42.49;99705.97;10510352;28;20526;-72
2023/07/29 06:08:08;;;;;;;2.55;1.58;;;;;;;25.01;45.15;99700.19;10524744;28;20049;-71
2023/07/29 06:13:10;;;;;;;3.00;1.75;;;;;;;24.08;46.64;99709.59;10508148;28;20043;-72
2023/07/29 06:18:12;;;;;;;2.70;1.45;;;;;;;23.46;47.66;99711.28;10509725;28;20048;-71
2023/07/29 06:23:14;;;;;;;2.42;1.73;;;;;;;23.00;48.95;99699.75;10517287;28;20048;-71
2023/07/29 06:28:16;;;;;;;2.55;1.50;;;;;;;25.04;44.93;99702.19;10527308;28;20048;-71
2023/07/29 06:33:19;;;;;;;2.25;1.73;;;;;;;26.00;42.95;99693.53;10526072;28;20044;-72
2023/07/29 06:38:21;;;;;;;3.05;1.55;;;;;;;24.74;44.20;99687.72;10510069;28;20048;-72
2023/07/29 06:43:24;;;;;;;2.38;1.52;;;;;;;25.48;44.25;99679.25;10526448;28;20427;-72
2023/07/29 06:48:26;;;;;;;3.10;1.63;;;;;;;26.97;40.74;99682.50;10509598;28;20056;-72
2023/07/29 06:53:28;;;;;;;2.53;1.65;;;;;;;26.17;42.58;99675.00;10525076;28;20396;-72
2023/07/29 06:58:30;;;;;;;3.28;1.70;;;;;;;26.14;42.13;99679.41;10525059;28;20044;-72
2023/07/29 07:03:32;;;;;;;1.63;1.40;;;;;;;26.95;40.61;99679.31;10527038;28;20040;-72
2023/07/29 07:08:34;;;;;;;5.53;1.63;;;;;;;27.50;39.27;99675.56;10526966;28;20056;-72
2023/07/29 07:13:36;;;;;;;3.70;1.63;;;;;;;27.85;38.94;99680.81;10525632;28;20392;-72
2023/07/29 07:18:38;;;;;;;2.13;1.27;;;;;;;27.67;39.04;99668.97;10507558;28;20051;-72
2023/07/29 07:23:41;;;;;;;1.30;1.15;;;;;;;27.16;39.37;99678.31;10526929;28;20044;-72
2023/07/29 07:28:43;;;;;;;2.22;1.50;;;;;;;27.25;39.37;99675.84;10532709;28;20044;-72
2023/07/29 07:33:45;;;;;;;2.20;1.60;;;;;;;27.58;38.94;99671.44;10531489;28;20526;-72
2023/07/29 07:38:47;;;;;;;3.47;1.17;;;;;;;26.38;41.64;99657.19;10511461;28;20033;-72
2023/07/29 07:43:49;;;;;;;2.15;1.30;;;;;;;26.63;40.84;99657.03;10528122;28;20040;-72
2023/07/29 07:48:51;;;;;;;2.08;1.55;;;;;;;25.90;41.97;99669.13;10528467;28;20147;-72
2023/07/29 07:53:54;;;;;;;3.47;1.38;;;;;;;26.07;42.02;99671.03;10514074;28;20056;-72
2023/07/29 07:58:56;;;;;;;3.40;1.33;;;;;;;25.29;43.76;99671.28;10531992;28;20418;-71
2023/07/29 08:03:58;;;;;;;2.55;1.30;;;;;;;25.49;43.13;99658.38;10518735;28;20045;-71
2023/07/29 08:09:00;;;;;;;1.48;1.25;;;;;;;24.34;44.77;99662.44;10515546;28;20079;-71
2023/07/29 08:14:02;;;;;;;2.30;1.48;;;;;;;25.16;43.30;99659.66;10532651;28;20040;-71
2023/07/29 08:19:04;;;;;;;1.70;1.20;;;;;;;25.76;42.98;99652.31;10509710;28;20391;-71
2023/07/29 08:24:07;;;;;;;2.42;1.42;;;;;;;25.06;44.26;99646.47;10501037;28;20040;-71
2023/07/29 08:29:09;;;;;;;2.38;1.50;;;;;;;23.98;46.48;99653.13;10512727;28;20529;-71
2023/07/29 08:34:11;;;;;;;2.08;1.38;;;;;;;23.70;47.99;99650.22;10531197;28;20043;-71
2023/07/29 08:39:13;;;;;;;1.80;1.50;;;;;;;23.26;48.80;99658.75;10513497;28;20048;-71
2023/07/29 08:44:25;;;;;;;2.70;1.40;;;;;;;24.26;46.60;99649.56;10512295;28;20147;-71
2023/07/29 08:49:28;;;;;;;2.20;1.33;;;;;;;24.77;46.67;99658.88;10529223;28;20060;-70
2023/07/29 08:54:30;;;;;;;3.55;1.95;;;;;;;24.17;46.71;99663.19;10494695;28;20059;-72
2023/07/29 08:59:33;;;;;;;1.80;1.30;;;;;;;24.68;46.43;99664.88;10529880;28;20048;-70
2023/07/29 09:04:35;;;;;;;1.20;1.10;;;;;;;23.39;48.97;99660.03;10490931;28;20685;-70
2023/07/29 09:09:37;;;;;;;2.15;1.17;;;;;;;23.93;47.71;99655.50;10519816;28;20059;-70
2023/07/29 09:14:39;;;;;;;3.47;1.60;;;;;;;24.19;47.71;99657.97;10522739;28;20048;-71
2023/07/29 09:19:41;;;;;;;2.78;1.40;;;;;;;25.33;44.02;99648.78;10523063;28;20490;-71
2023/07/29 09:24:45;;;;;;;1.52;1.23;;;;;;;26.61;42.81;99648.22;10498951;28;20041;-71
2023/07/29 09:29:47;;;;;;;2.50;1.20;;;;;;;25.68;42.93;99651.53;10524360;28;20174;-72
2023/07/29 09:34:50;;;;;;;1.98;1.40;;;;;;;24.24;46.36;99648.38;10516875;28;20122;-72
2023/07/29 09:39:52;;;;;;;1.60;1.27;;;;;;;23.19;49.14;99651.09;10509835;28;20529;-70
2023/07/29 09:44:55;;;;;;;1.60;1.30;;;;;;;22.86;50.42;99646.47;10495118;28;20518;-71
2023/07/29 09:49:57;;;;;;;2.53;1.58;;;;;;;22.49;51.07;99655.72;10527477;28;20052;-71
2023/07/29 09:54:59;;;;;;;1.60;1.45;;;;;;;22.89;50.13;99642.91;10490547;28;20051;-71
2023/07/29 10:00:05;;;;;;;2.72;1.98;;;;;;;23.60;49.58;99645.34;10528847;28;20040;-71
2023/07/29 10:05:08;;;;;;;1.80;1.50;;;;;;;23.47;48.23;99653.28;10510529;28;20619;-71
2023/07/29 10:10:11;;;;;;;1.55;1.30;;;;;;;23.23;49.44;99660.31;10527981;28;20040;-72
2023/07/29 10:15:14;;;;;;;1.98;1.38;;;;;;;21.62;52.56;99646.75;10510208;28;20041;-71
2023/07/29 10:20:16;;;;;;;2.13;1.52;;;;;;;21.34;53.43;99658.34;10527537;28;20048;-71
2023/07/29 10:25:21;;;;;;;1.80;1.52;;;;;;;21.48;53.48;99663.31;10497515;28;20068;-71
2023/07/29 10:30:25;;;;;;;1.83;1.50;;;;;;;22.15;53.29;99652.19;10485303;28;20057;-71
2023/07/29 10:35:27;;;;;;;2.42;1.98;;;;;;;22.78;51.05;99654.00;10495794;28;20626;-71
2023/07/29 10:40:47;;;;;;;3.22;1.63;;;;;;;22.46;49.97;99658.50;10509679;28;20048;-72
2023/07/29 10:45:49;;;;;;;3.47;1.80;;;;;;;22.67;49.44;99647.50;10493167;28;20530;-72
2023/07/29 10:51:26;;;;;;;2.17;1.70;;;;;;;22.80;50.13;99643.22;10522766;28;20045;-75
2023/07/29 10:56:33;;;;;;;2.70;1.60;;;;;;;22.98;49.89;99646.16;10502057;28;20835;-72
2023/07/29 11:01:35;;;;;;;2.45;1.60;;;;;;;23.39;47.73;99654.41;10510287;28;20049;-72
2023/07/29 11:07:03;;;;;;;2.33;1.40;;;;;;;23.34;47.83;99643.59;10535227;28;20072;-72
2023/07/29 11:12:26;;;;;;;2.13;1.58;;;;;;;22.84;47.92;99649.66;10516431;28;20036;-72
2023/07/29 11:17:30;;;;;;;1.98;1.73;;;;;;;22.79;48.15;99641.59;10506187;28;20028;-72
2023/07/29 11:22:32;;;;;;;2.65;1.50;;;;;;;22.50;48.67;99648.94;10506486;28;20037;-72
2023/07/29 11:27:35;;;;;;;3.28;1.70;;;;;;;22.26;49.07;99635.56;10531419;28;20048;-72
2023/07/29 11:32:39;;;;;;;1.75;1.52;;;;;;;22.34;49.82;99640.00;10516488;28;20052;-72
2023/07/29 11:37:44;;;;;;;3.28;1.80;;;;;;;22.17;49.94;99635.03;10532948;28;20044;-72
2023/07/29 11:42:47;;;;;;;2.70;1.60;;;;;;;22.25;49.88;99634.75;10535948;28;20044;-72
2023/07/29 11:47:49;;;;;;;1.63;1.48;;;;;;;22.52;49.45;99631.78;10531584;28;20056;-72
2023/07/29 11:52:51;;;;;;;2.03;1.33;;;;;;;22.49;48.90;99633.38;10536140;28;20499;-72
2023/07/29 11:57:53;;;;;;;1.80;1.42;;;;;;;22.18;48.82;99628.25;10551061;28;20036;-71
2023/07/29 12:02:56;;;;;;;2.22;1.52;;;;;;;21.91;49.50;99625.56;10556891;28;20690;-72
2023/07/29 12:07:58;;;;;;;1.92;1.70;;;;;;;22.02;49.40;99633.25;10545983;28;20049;-71
2023/07/29 12:13:02;;;;;;;1.60;1.50;;;;;;;22.06;49.89;99640.53;10514106;28;20052;-72
2023/07/29 12:18:04;;;;;;;4.28;1.90;;;;;;;21.47;55.27;99649.75;10533234;28;20119;-72
2023/07/29 12:23:07;;;;;;;2.63;1.33;;;;;;;20.57;58.15;99655.94;10532265;28;20059;-71
2023/07/29 12:28:09;;;;;;;3.33;1.30;;;;;;;20.60;59.01;99646.00;10531123;28;20067;-71
2023/07/29 12:33:12;;;;;;;1.40;1.05;;;;;;;21.02;54.24;99646.72;10531854;28;20040;-71
2023/07/29 12:38:21;;;;;;;1.48;1.23;;;;;;;21.38;53.03;99638.88;10513765;28;20037;-71
2023/07/29 12:43:25;;;;;;;1.83;1.40;;;;;;;21.41;53.14;99643.69;10531380;28;20045;-71
2023/07/29 12:48:27;;;;;;;1.63;1.27;;;;;;;21.47;52.75;99641.38;10532573;28;20130;-71
2023/07/29 12:53:29;;;;;;;3.13;1.50;;;;;;;21.41;51.98;99651.28;10530448;28;20427;-71
2023/07/29 12:58:33;;;;;;;1.40;1.27;;;;;;;21.24;52.26;99661.81;10529154;28;20561;-71
2023/07/29 13:03:35;;;;;;;2.42;1.20;;;;;;;20.50;54.20;99686.47;10530552;28;20507;-71
2023/07/29 13:08:37;;;;;;;1.25;0.85;;;;;;;19.66;57.00;99692.75;10530937;28;20045;-71
2023/07/29 13:13:39;;;;;;;1.80;0.90;;;;;;;19.43;58.42;99698.16;10512565;28;20142;-72
2023/07/29 13:18:43;;;;;;;1.27;0.90;;;;;;;19.50;58.75;99692.78;10533580;28;20032;-71
2023/07/29 13:23:45;;;;;;;3.25;0.90;;;;;;;20.11;57.32;99689.28;10511296;28;20071;-71
2023/07/29 13:28:48;;;;;;;1.10;1.00;;;;;;;20.46;55.83;99680.00;10529336;28;20044;-71
2023/07/29 13:33:51;;;;;;;1.48;0.73;;;;;;;20.56;55.33;99679.41;10528434;28;20044;-71
2023/07/29 13:38:53;;;;;;;1.55;0.93;;;;;;;20.53;54.96;99687.72;10511202;28;20052;-71
2023/07/29 13:43:56;;;;;;;2.47;0.90;;;;;;;20.83;54.17;99682.25;10530251;28;20506;-71
2023/07/29 13:48:58;;;;;;;4.88;1.17;;;;;;;20.53;56.64;99680.16;10510632;28;20048;-71
2023/07/29 13:54:01;;;;;;;1.08;0.90;;;;;;;20.93;55.56;99681.59;10527516;28;20060;-71
2023/07/29 13:59:03;;;;;;;1.77;1.08;;;;;;;21.31;53.84;99683.41;10526328;28;20561;-72
2023/07/29 14:04:05;;;;;;;1.27;1.10;;;;;;;21.42;53.18;99681.59;10526636;28;20044;-72
2023/07/29 14:09:07;;;;;;;1.10;1.00;;;;;;;20.99;51.57;99675.31;10525501;28;20052;-72
2023/07/29 14:14:09;;;;;;;2.67;1.10;;;;;;;21.02;49.81;99685.75;10526088;28;20059;-71
2023/07/29 14:19:11;;;;;;;0.88;0.88;;;;;;;20.81;49.57;99685.41;10526071;28;20040;-72
2023/07/29 14:24:15;;;;;;;2.10;1.50;;;;;;;20.87;50.17;99683.13;10526319;28;20509;-71
2023/07/29 14:29:17;;;;;;;0.70;0.70;;;;;;;20.90;50.11;99680.38;10525685;28;20059;-71
2023/07/29 14:34:19;;;;;;;1.20;0.90;;;;;;;20.92;51.75;99680.00;10534401;28;20040;-71
2023/07/29 14:39:21;;;;;;;1.02;0.75;;;;;;;20.53;53.14;99680.16;10525864;28;20033;-71
2023/07/29 14:44:24;;;;;;;1.27;0.82;;;;;;;20.75;53.45;99682.13;10525307;28;20044;-71
2023/07/29 14:49:26;;;;;;;3.55;1.20;;;;;;;20.86;53.75;99687.09;10525011;28;20052;-71
2023/07/29 14:54:28;;;;;;;0.80;0.80;;;;;;;20.94;52.28;99680.44;10484927;28;1152930;-72
2023/07/29 14:59:30;;;;;;;3.15;1.13;;;;;;;20.92;52.55;99697.53;10526731;28;20044;-71
2023/07/29 15:04:33;;;;;;;1.27;0.85;;;;;;;20.75;52.42;99703.63;10525846;28;20055;-71
2023/07/29 15:09:36;;;;;;;0.70;0.70;;;;;;;20.80;53.38;99706.09;10526450;28;20533;-71
2023/07/29 15:14:38;;;;;;;0.90;0.75;;;;;;;20.61;53.61;99714.53;10529785;28;20036;-72
2023/07/29 15:19:40;;;;;;;1.58;1.05;;;;;;;20.47;54.99;99717.84;10508584;28;20044;-72
2023/07/29 15:24:46;;;;;;;0.88;0.85;;;;;;;20.51;55.36;99718.75;10526138;28;20064;-71
2023/07/29 15:29:48;;;;;;;1.25;0.90;;;;;;;20.58;54.01;99721.66;10525643;28;20052;-71
2023/07/29 15:34:51;;;;;;;0.98;0.90;;;;;;;20.39;54.01;99714.09;10525891;28;20060;-71
2023/07/29 15:39:53;;;;;;;1.38;0.90;;;;;;;20.46;54.57;99703.13;10526203;28;20041;-71
2023/07/29 15:44:56;;;;;;;1.85;1.00;;;;;;;20.51;53.83;99709.59;10526779;28;20521;-71
2023/07/29 15:49:58;;;;;;;1.30;0.73;;;;;;;20.62;52.86;99705.78;10533539;28;20059;-71
2023/07/29 15:55:01;;;;;;;1.42;0.70;;;;;;;20.54;52.01;99704.06;10532489;28;20045;-71
2023/07/29 16:00:04;;;;;;;0.60;0.60;;;;;;;20.49;52.61;99711.94;10533124;28;20037;-71
2023/07/29 16:05:13;;;;;;;0.82;0.63;;;;;;;20.23;52.92;99698.66;10532608;28;20426;-71
2023/07/29 16:10:16;;;;;;;1.98;0.98;;;;;;;19.62;55.14;99700.22;10514818;28;20503;-71
2023/07/29 16:15:18;;;;;;;1.42;1.15;;;;;;;19.68;55.63;99695.16;10536110;28;20045;-71
2023/07/29 16:20:21;;;;;;;1.10;0.80;;;;;;;19.76;55.57;99697.72;10566428;28;20067;-71
2023/07/29 16:25:23;;;;;;;1.20;1.10;;;;;;;19.66;56.27;99698.31;10574746;28;20048;-71
2023/07/29 16:30:25;;;;;;;1.33;1.00;;;;;;;19.72;55.69;99691.28;10560894;28;20052;-71
2023/07/29 16:35:28;;;;;;;2.65;1.25;;;;;;;19.89;55.71;99690.03;10531712;28;20041;-71
2023/07/29 16:40:32;;;;;;;2.42;1.30;;;;;;;19.90;56.04;99690.84;10531574;28;20041;-71
2023/07/29 16:45:35;;;;;;;1.77;1.25;;;;;;;19.77;56.91;99687.41;10531189;28;20556;-71
2023/07/29 16:50:37;;;;;;;1.13;0.80;;;;;;;19.90;56.53;99680.50;10531840;28;20055;-71
2023/07/29 16:55:39;;;;;;;2.85;1.50;;;;;;;19.87;56.58;99687.63;10530674;28;20414;-71
2023/07/29 17:00:42;;;;;;;1.95;1.23;;;;;;;19.98;56.34;99687.06;10512381;28;20048;-71
2023/07/29 17:05:44;;;;;;;1.60;1.30;;;;;;;19.84;56.95;99687.56;10512908;28;20420;-71
2023/07/29 17:10:46;;;;;;;1.85;1.42;;;;;;;19.49;58.60;99684.81;10530924;28;20052;-71
2023/07/29 17:15:48;;;;;;;2.25;1.20;;;;;;;19.70;58.27;99696.41;10530313;28;20037;-71
2023/07/29 17:20:50;;;;;;;1.48;1.15;;;;;;;19.49;59.03;99693.94;10511985;28;20418;-71
2023/07/29 17:26:04;;;;;;;1.73;1.13;;;;;;;19.50;58.78;99703.91;10529840;28;20040;-71
2023/07/29 17:31:19;;;;;;;1.73;1.30;;;;;;;19.43;59.08;99695.38;10529269;28;20045;-71
2023/07/29 17:36:21;;;;;;;1.45;1.30;;;;;;;19.25;59.51;99703.31;10511458;28;20564;-71
2023/07/29 17:41:43;;;;;;;1.33;1.10;;;;;;;19.65;58.94;99695.91;10528712;28;20051;-71
2023/07/29 17:47:11;;;;;;;2.65;1.15;;;;;;;19.67;58.45;99697.16;10518632;28;20040;-71
2023/07/29 17:52:15;;;;;;;5.88;1.40;;;;;;;19.33;58.60;99701.53;10528433;28;20048;-72
2023/07/29 17:57:20;;;;;;;1.65;0.95;;;;;;;19.36;58.57;99708.34;10510502;28;20048;-71
2023/07/29 18:02:32;;;;;;;1.90;1.10;;;;;;;19.39;58.42;99710.41;10528281;28;20517;-71
2023/07/29 18:08:02;;;;;;;1.33;1.10;;;;;;;19.28;57.96;99722.09;10530950;28;20040;-70
2023/07/29 18:13:25;;;;;;;2.00;1.00;;;;;;;19.07;58.40;99765.25;10485505;28;20415;-72
2023/07/29 18:19:32;;;;;;;3.33;0.82;;;;;;;18.08;60.30;99778.06;10500943;28;20053;-72
2023/07/29 18:25:02;;;;;;;;;;;;;;;;;;;;;
2023/07/29 18:30:15;;;;;;;;;;;;;;;;;;;;;
2023/07/29 18:35:31;;;;;;;;;;;;;;;;;;;;;
2023/07/29 18:41:33;;;;;;;;;;;;;;;;;;;;;
2023/07/29 18:46:37;;;;;;;0.77;0.77;;;;;;;18.09;60.88;99785.22;10502020;28;20052;-73
2023/07/29 18:52:07;;;;;;;1.63;1.10;;;;;;;18.16;60.18;99806.84;10521340;28;20040;-72
2023/07/29 18:57:10;;;;;;;1.50;0.90;;;;;;;17.54;63.67;99825.56;10509882;28;20052;-73
2023/07/29 19:02:12;;;;;;;1.50;0.70;;;;;;;16.50;70.84;99835.03;10506969;28;20037;-72
2023/07/29 19:07:14;;;;;;;2.45;0.85;;;;;;;15.64;75.24;99802.53;10503736;28;20040;-72
2023/07/29 19:12:29;;;;;;;;;;;;;;;;;;;;;
2023/07/29 19:17:33;;;;;;;1.90;0.80;;;;;;;15.35;80.14;99783.94;10510354;28;20037;-71
2023/07/29 19:22:42;;;;;;;0.75;0.70;;;;;;;16.21;75.57;99768.69;10490050;28;20045;-72
2023/07/29 19:28:39;;;;;;;0.98;0.90;;;;;;;16.13;76.58;99762.06;10501733;28;20045;-72
2023/07/29 19:33:43;;;;;;;1.85;0.93;;;;;;;16.24;76.21;99765.25;10534624;28;20041;-77
2023/07/29 19:39:00;;;;;;;0.70;0.70;;;;;;;16.69;73.50;99742.34;10531706;28;20414;-71
2023/07/29 19:44:05;;;;;;;1.17;0.88;;;;;;;16.76;73.97;99734.25;10532353;28;20047;-72
2023/07/29 19:49:08;;;;;;;0.98;0.60;;;;;;;16.86;73.91;99731.84;10533121;28;20070;-71
2023/07/29 19:54:10;;;;;;;1.02;0.70;;;;;;;16.79;73.67;99719.72;10531024;28;20049;-71
2023/07/29 19:59:12;;;;;;;1.00;0.80;;;;;;;16.74;73.71;99717.16;10529108;28;20043;-71
2023/07/29 20:04:14;;;;;;;2.30;1.00;;;;;;;16.99;73.08;99717.97;10527390;28;20036;-71
2023/07/29 20:09:16;;;;;;;1.30;0.95;;;;;;;16.97;72.87;99731.38;10522391;28;20045;-71
2023/07/29 20:14:19;;;;;;;1.73;1.10;;;;;;;16.55;74.43;99728.78;10529070;28;20067;-71
2023/07/29 20:19:21;;;;;;;1.30;1.02;;;;;;;16.24;75.80;99729.25;10528884;28;20037;-70
2023/07/29 20:24:23;;;;;;;1.75;1.10;;;;;;;16.83;73.18;99727.00;10521523;28;20051;-76
2023/07/29 20:29:30;;;;;;;1.70;1.10;;;;;;;17.01;72.32;99729.53;10517878;28;20053;-76
2023/07/29 20:34:32;;;;;;;;;;;;;;;16.93;73.08;99734.03;10513627;28;20036;-74
2023/07/29 20:39:34;;;;;;;1.70;0.98;;;;;;;16.74;74.05;99736.56;10514346;28;19927;-76
2023/07/29 20:44:38;;;;;;;1.20;0.95;;;;;;;16.74;74.24;99733.78;10502531;28;20044;-74
2023/07/29 20:49:44;;;;;;;1.70;1.30;;;;;;;17.01;73.08;99735.91;10524365;28;20056;-76
2023/07/29 20:54:47;;;;;;;1.38;1.10;;;;;;;17.14;72.58;99740.28;10528517;28;20403;-79
2023/07/29 20:59:49;;;;;;;1.92;1.40;;;;;;;16.56;74.88;99747.81;10499570;28;20032;-75
2023/07/29 21:04:51;;;;;;;2.78;1.60;;;;;;;16.33;74.64;99752.16;10521075;28;20060;-74
2023/07/29 21:09:54;;;;;;;1.67;1.30;;;;;;;16.54;74.54;99747.34;10501288;28;20049;-74
2023/07/29 21:14:56;;;;;;;3.88;1.83;;;;;;;16.30;76.05;99741.72;10523230;28;20139;-74
2023/07/29 21:20:01;;;;;;;1.70;1.10;;;;;;;16.24;76.36;99743.91;10529186;28;20044;-73
2023/07/29 21:25:03;;;;;;;1.42;1.02;;;;;;;16.34;76.12;99744.66;10522913;28;20051;-73
2023/07/29 21:30:10;;;;;;;1.27;1.08;;;;;;;16.18;76.75;99747.25;10520878;28;20388;-71
2023/07/29 21:35:13;;;;;;;1.88;1.15;;;;;;;15.87;78.62;99754.00;10515878;28;20036;-70
2023/07/29 21:40:15;;;;;;;2.50;1.05;;;;;;;15.61;81.14;99764.44;10525560;28;20036;-70
2023/07/29 21:45:17;;;;;;;1.80;1.38;;;;;;;15.54;82.43;99758.63;10525708;28;20044;-70
2023/07/29 21:50:20;;;;;;;2.15;1.35;;;;;;;15.32;84.27;99756.97;10506428;28;20052;-71
2023/07/29 21:55:22;;;;;;;2.10;1.20;;;;;;;15.42;84.04;99747.47;10500265;28;20060;-70
2023/07/29 22:00:24;;;;;;;6.15;1.25;;;;;;;15.52;84.11;99749.88;10486102;28;20062;-70
2023/07/29 22:05:26;;;;;;;3.78;1.38;;;;;;;15.40;85.05;99756.09;10486300;28;20032;-71
2023/07/29 22:10:28;;;;;;;1.55;1.00;;;;;;;15.54;85.02;99758.63;10481055;28;20067;-71
2023/07/29 22:15:35;;;;;;;2.35;1.00;;;;;;;15.46;85.23;99753.97;10486202;28;20422;-72
2023/07/29 22:20:37;;;;;;;1.52;1.13;;;;;;;15.31;86.68;99760.91;10471483;28;20037;-72
2023/07/29 22:25:39;;;;;;;1.20;1.10;;;;;;;15.26;86.69;99759.09;10485851;28;20056;-72
2023/07/29 22:30:41;;;;;;;3.13;1.30;;;;;;;15.59;85.65;99762.03;10485424;28;20048;-71
2023/07/29 22:35:43;;;;;;;1.48;1.08;;;;;;;15.53;86.05;99757.00;10478689;28;20041;-72
2023/07/29 22:40:53;;;;;;;1.25;1.00;;;;;;;15.59;86.10;99762.03;10449379;28;20049;-71
2023/07/29 22:45:57;;;;;;;2.63;1.20;;;;;;;15.44;85.84;99750.72;10472876;28;20036;-72
2023/07/29 22:50:59;;;;;;;2.25;1.20;;;;;;;15.71;84.26;99764.06;10454444;28;20056;-72
2023/07/29 22:56:01;;;;;;;1.48;1.10;;;;;;;15.80;83.70;99758.47;10496958;28;20048;-71
2023/07/29 23:01:03;;;;;;;2.15;1.20;;;;;;;15.84;83.42;99763.00;10535497;28;20062;-71
2023/07/29 23:06:05;;;;;;;2.42;1.10;;;;;;;15.73;84.33;99759.00;10530534;28;20044;-72
2023/07/29 23:11:07;;;;;;;2.15;1.30;;;;;;;15.84;84.21;99762.19;10520915;28;20055;-72
2023/07/29 23:16:10;;;;;;;2.85;1.33;;;;;;;15.82;84.57;99765.28;10527935;28;20054;-72
2023/07/29 23:21:12;;;;;;;2.25;1.08;;;;;;;15.65;85.37;99776.47;10534754;28;20059;-72
2023/07/29 23:26:14;;;;;;;2.58;1.20;;;;;;;15.82;85.52;99768.06;10530933;28;20060;-71
2023/07/29 23:31:16;;;;;;;1.63;1.00;;;;;;;15.79;85.17;99765.94;10519586;28;20044;-71
2023/07/29 23:36:18;;;;;;;1.60;1.00;;;;;;;15.85;84.07;99769.34;10521264;28;20032;-70
2023/07/29 23:41:20;;;;;;;2.63;0.88;;;;;;;15.94;85.52;99757.03;10525170;28;20041;-71
2023/07/29 23:46:23;;;;;;;1.10;0.90;;;;;;;16.11;83.59;99755.28;10527895;28;20406;-71
2023/07/29 23:51:25;;;;;;;3.90;0.90;;;;;;;15.89;83.77;99751.72;10531424;28;20040;-71